createdAt,value
2023-08-11T00:00:00.899Z,33.83267
2023-08-11T00:05:02.060Z,33.91168
2023-08-11T00:10:02.985Z,34.0373
2023-08-11T00:15:03.882Z,34.22203
2023-08-11T00:20:04.872Z,34.14521
2023-08-11T00:25:05.790Z,34.1693
2023-08-11T00:30:06.830Z,34.09235
2023-08-11T00:35:07.731Z,34.12309
2023-08-11T00:40:08.673Z,34.16528
2023-08-11T00:45:09.574Z,34.2905
2023-08-11T00:50:10.514Z,34.34475
2023-08-11T00:55:11.388Z,34.39809
2023-08-11T01:00:12.354Z,34.35122
2023-08-11T01:05:13.337Z,34.50003
2023-08-11T01:10:14.334Z,34.55984
2023-08-11T01:15:15.311Z,34.60715
2023-08-11T01:20:16.312Z,34.51949
2023-08-11T01:25:17.288Z,34.53765
2023-08-11T01:30:18.188Z,34.6394
2023-08-11T01:35:25.921Z,34.59239
2023-08-11T01:40:35.119Z,34.61023
2023-08-11T01:45:36.091Z,34.59893
2023-08-11T01:50:37.008Z,34.68296
2023-08-11T01:55:37.937Z,34.74277
2023-08-11T02:00:38.813Z,34.87405
2023-08-11T02:05:39.752Z,34.97569
2023-08-11T02:10:40.632Z,35.02311
2023-08-11T02:15:41.593Z,35.02871
2023-08-11T02:20:42.514Z,34.90922
2023-08-11T02:25:43.444Z,34.94513
2023-08-11T02:30:44.407Z,34.99796
2023-08-11T02:35:45.429Z,35.0568
2023-08-11T02:40:46.366Z,35.03853
2023-08-11T02:45:47.378Z,35.07995
2023-08-11T02:50:48.309Z,35.12669
2023-08-11T02:55:49.268Z,35.16163
2023-08-11T03:00:50.248Z,35.22049
2023-08-11T03:05:51.320Z,35.2441
2023-08-11T03:10:57.259Z,35.27891
2023-08-11T03:15:58.633Z,35.38518
2023-08-11T03:21:13.563Z,35.34296
2023-08-11T03:26:20.141Z,35.31243
2023-08-11T03:31:21.062Z,35.41287
2023-08-11T03:36:22.101Z,35.49554
2023-08-11T03:41:23.008Z,35.48976
2023-08-11T03:46:23.963Z,35.5728
2023-08-11T03:51:25.256Z,35.55431
2023-08-11T03:56:26.529Z,35.64912
2023-08-11T04:01:27.784Z,35.59452
2023-08-11T04:06:29.075Z,35.42759
2023-08-11T04:11:30.022Z,35.35566
2023-08-11T04:16:30.992Z,35.21887
2023-08-11T04:21:32.079Z,35.02711
2023-08-11T04:26:32.990Z,35.06259
2023-08-11T04:31:33.972Z,35.0217
2023-08-11T04:36:34.908Z,34.96639
2023-08-11T04:41:35.808Z,34.97108
2023-08-11T04:46:36.781Z,34.94093
2023-08-11T04:51:37.803Z,34.82228
2023-08-11T04:56:38.722Z,34.72035
2023-08-11T05:01:39.687Z,34.79715
2023-08-11T05:06:40.640Z,34.77872
2023-08-11T05:11:41.570Z,34.70092
2023-08-11T05:16:42.542Z,34.65876
2023-08-11T05:21:43.589Z,34.56806
2023-08-11T05:26:44.499Z,34.57223
2023-08-11T05:31:45.575Z,34.57693
2023-08-11T05:36:46.561Z,34.52802
2023-08-11T05:41:47.512Z,34.50957
2023-08-11T05:46:48.527Z,34.24505
2023-08-11T05:51:49.616Z,34.3575
2023-08-11T05:56:50.522Z,34.33052
2023-08-11T06:01:51.539Z,34.23839
2023-08-11T06:06:52.581Z,33.71021
2023-08-11T06:11:53.489Z,33.59352
2023-08-11T06:16:54.466Z,33.61516
2023-08-11T06:21:55.389Z,33.45836
2023-08-11T06:26:56.323Z,33.18913
2023-08-11T06:31:57.565Z,32.97745
2023-08-11T06:36:58.533Z,32.68659
2023-08-11T06:41:59.451Z,32.32036
2023-08-11T06:47:00.361Z,32.22091
2023-08-11T06:52:01.477Z,31.81508
2023-08-11T06:57:02.429Z,31.51388
2023-08-11T07:02:03.564Z,31.47918
2023-08-11T07:07:04.529Z,31.23715
2023-08-11T07:12:05.415Z,31.01982
2023-08-11T07:17:06.506Z,30.96934
2023-08-11T07:22:07.570Z,30.94222
2023-08-11T07:27:08.637Z,30.35484
2023-08-11T07:32:09.729Z,29.97091
2023-08-11T07:37:11.037Z,29.49042
2023-08-11T07:42:12.156Z,28.75227
2023-08-11T07:47:13.083Z,28.30268
2023-08-11T07:52:14.011Z,27.68395
2023-08-11T07:57:16.894Z,27.40442
2023-08-11T08:02:19.302Z,27.23115
2023-08-11T08:07:20.212Z,27.04243
2023-08-11T08:12:21.214Z,26.45358
2023-08-11T08:17:22.148Z,26.22176
2023-08-11T08:22:23.081Z,25.99761
2023-08-11T08:27:24.038Z,25.84535
2023-08-11T08:32:25.062Z,25.32597
2023-08-11T08:37:26.326Z,25.20113
2023-08-11T08:42:27.561Z,24.6004
2023-08-11T08:47:28.790Z,23.92089
2023-08-11T08:52:29.731Z,23.90356
2023-08-11T08:57:30.648Z,23.679
2023-08-11T09:02:31.762Z,23.45325
2023-08-11T09:07:32.815Z,23.37657
2023-08-11T09:12:33.806Z,23.03276
2023-08-11T09:17:34.883Z,22.98664
2023-08-11T09:22:35.850Z,22.80123
2023-08-11T09:27:36.734Z,22.9604
2023-08-11T09:32:37.675Z,22.78951
2023-08-11T09:37:38.637Z,22.93963
2023-08-11T09:42:39.565Z,22.77847
2023-08-11T09:47:40.577Z,22.70621
2023-08-11T09:52:41.589Z,22.5461
2023-08-11T09:57:42.522Z,22.5486
2023-08-11T10:02:43.497Z,22.6526
2023-08-11T10:07:44.479Z,22.46778
2023-08-11T10:12:45.641Z,21.97051
2023-08-11T10:17:46.697Z,21.79027
2023-08-11T10:22:47.718Z,21.79756
2023-08-11T10:27:48.654Z,21.70656
2023-08-11T10:32:49.702Z,21.46408
2023-08-11T10:37:50.657Z,21.61829
2023-08-11T10:42:51.557Z,21.86582
2023-08-11T10:47:52.537Z,21.76176
2023-08-11T10:52:53.449Z,21.87462
2023-08-11T10:57:54.397Z,21.65651
2023-08-11T11:02:55.364Z,21.78506
2023-08-11T11:07:56.413Z,21.69389
2023-08-11T11:12:57.453Z,21.59609
2023-08-11T11:17:58.392Z,21.38929
2023-08-11T11:22:59.356Z,21.31487
2023-08-11T11:28:00.301Z,21.14833
2023-08-11T11:33:03.641Z,21.06439
2023-08-11T11:38:05.982Z,20.97195
2023-08-11T11:43:06.920Z,20.84966
2023-08-11T11:48:07.897Z,20.80457
2023-08-11T11:53:08.945Z,20.82397
2023-08-11T11:58:09.891Z,20.68073
2023-08-11T12:03:10.883Z,20.65158
2023-08-11T12:08:11.825Z,20.68458
2023-08-11T12:13:12.737Z,20.6592
2023-08-11T12:18:13.707Z,20.62645
2023-08-11T12:23:14.639Z,20.36074
2023-08-11T12:28:15.597Z,20.3866
2023-08-11T12:33:16.595Z,20.23857
2023-08-11T12:38:17.707Z,20.00735
2023-08-11T12:43:18.639Z,20.08271
2023-08-11T12:48:19.587Z,19.84279
2023-08-11T12:53:20.529Z,19.5048
2023-08-11T12:58:21.455Z,19.23008
2023-08-11T13:03:22.376Z,18.77762
2023-08-11T13:08:23.397Z,18.99413
2023-08-11T13:13:24.337Z,18.53461
2023-08-11T13:18:25.471Z,18.30919
2023-08-11T13:23:26.720Z,18.02933
2023-08-11T13:28:27.935Z,17.75845
2023-08-11T13:33:29.223Z,17.70692
2023-08-11T13:38:30.428Z,17.75121
2023-08-11T13:43:31.410Z,17.54647
2023-08-11T13:48:32.341Z,17.33939
2023-08-11T13:53:33.435Z,17.19012
2023-08-11T13:58:34.353Z,17.16856
2023-08-11T14:03:35.295Z,17.2107
2023-08-11T14:08:36.249Z,17.19789
2023-08-11T14:13:37.244Z,17.07305
2023-08-11T14:18:38.231Z,17.05588
2023-08-11T14:23:39.179Z,16.73323
2023-08-11T14:28:40.164Z,16.6924
2023-08-11T14:33:41.298Z,16.92517
2023-08-11T14:38:42.343Z,16.72797
2023-08-11T14:43:43.302Z,16.52671
2023-08-11T14:48:44.201Z,16.53368
2023-08-11T14:53:45.157Z,16.431
2023-08-11T14:58:46.124Z,16.38734
2023-08-11T15:03:47.076Z,16.37677
2023-08-11T15:08:48.192Z,16.37481
2023-08-11T15:13:49.205Z,16.46566
2023-08-11T15:18:50.136Z,16.52055
2023-08-11T15:23:51.068Z,16.62698
2023-08-11T15:28:52.004Z,16.83588
2023-08-11T15:33:52.909Z,16.73542
2023-08-11T15:38:53.869Z,16.77853
2023-08-11T15:43:54.902Z,16.86308
2023-08-11T15:48:55.905Z,17.02029
2023-08-11T15:53:56.933Z,17.13048
2023-08-11T15:58:57.991Z,17.2688
2023-08-11T16:03:59.028Z,17.42073
2023-08-11T16:09:00.233Z,17.53622
2023-08-11T16:14:01.370Z,17.60483
2023-08-11T16:19:02.324Z,17.79918
2023-08-11T16:24:03.349Z,18.12693
2023-08-11T16:29:04.330Z,18.43833
2023-08-11T16:34:05.259Z,18.73123
2023-08-11T16:39:06.240Z,18.71763
2023-08-11T16:44:07.141Z,18.81824
2023-08-11T16:49:08.100Z,18.88502
2023-08-11T16:54:09.596Z,19.10098
2023-08-11T16:59:10.977Z,19.46862
2023-08-11T17:04:11.987Z,19.87005
2023-08-11T17:09:13.078Z,20.07003
2023-08-11T17:14:14.021Z,20.46497
2023-08-11T17:19:15.028Z,20.87313
2023-08-11T17:24:15.937Z,21.00849
2023-08-11T17:29:16.888Z,21.34077
2023-08-11T17:34:17.803Z,21.34535
2023-08-11T17:39:18.725Z,21.84507
2023-08-11T17:44:19.682Z,22.14299
2023-08-11T17:49:20.613Z,22.45826
2023-08-11T17:54:21.519Z,22.79809
2023-08-11T17:59:22.418Z,23.01307
2023-08-11T18:04:23.336Z,23.25991
2023-08-11T18:09:24.312Z,23.68507
2023-08-11T18:14:25.214Z,23.99801
2023-08-11T18:19:26.447Z,24.19443
2023-08-11T18:24:27.660Z,24.46315
2023-08-11T18:29:28.921Z,24.71851
2023-08-11T18:34:30.198Z,24.87202
2023-08-11T18:39:31.158Z,25.05499
2023-08-11T18:44:32.087Z,25.37734
2023-08-11T18:49:33.109Z,25.40577
2023-08-11T18:54:34.039Z,25.78371
2023-08-11T18:59:34.968Z,26.01394
2023-08-11T19:04:35.873Z,26.12206
2023-08-11T19:09:36.810Z,26.44958
2023-08-11T19:14:37.734Z,26.60089
2023-08-11T19:19:38.654Z,26.67752
2023-08-11T19:24:39.594Z,27.04
2023-08-11T19:29:40.532Z,27.2757
2023-08-11T19:34:41.464Z,27.58401
2023-08-11T19:39:42.470Z,27.85573
2023-08-11T19:44:43.404Z,28.15475
2023-08-11T19:49:44.453Z,28.2962
2023-08-11T19:54:45.455Z,28.49734
2023-08-11T19:59:46.360Z,28.44406
2023-08-11T20:04:47.288Z,28.63967
2023-08-11T20:09:48.235Z,28.70945
2023-08-11T20:14:49.185Z,28.83935
2023-08-11T20:19:50.215Z,28.99818
2023-08-11T20:24:51.106Z,29.19373
2023-08-11T20:29:52.122Z,29.31613
2023-08-11T20:34:53.092Z,29.43345
2023-08-11T20:39:54.363Z,29.57465
2023-08-11T20:44:55.305Z,29.70303
2023-08-11T20:49:56.260Z,29.81889
2023-08-11T20:54:57.237Z,29.92808
2023-08-11T20:59:58.220Z,30.07442
2023-08-11T21:04:59.145Z,30.17868
2023-08-11T21:10:00.567Z,30.17944
2023-08-11T21:15:01.723Z,30.38864
2023-08-11T21:20:02.647Z,30.60955
2023-08-11T21:25:03.547Z,30.8519
2023-08-11T21:30:04.497Z,31.07591
2023-08-11T21:35:05.468Z,31.11171
2023-08-11T21:40:06.404Z,31.12939
2023-08-11T21:45:07.340Z,31.2563
2023-08-11T21:50:08.291Z,31.33623
2023-08-11T21:55:09.232Z,31.34342
2023-08-11T22:00:10.185Z,31.41004
2023-08-11T22:05:11.114Z,31.48249
2023-08-11T22:10:12.046Z,31.50195
2023-08-11T22:15:12.975Z,31.49058
2023-08-11T22:20:13.924Z,31.55259
2023-08-11T22:25:14.872Z,31.72969
2023-08-11T22:30:15.826Z,31.83259
2023-08-11T22:35:16.801Z,31.97219
2023-08-11T22:40:17.791Z,32.06987
2023-08-11T22:45:18.724Z,32.14191
2023-08-11T22:50:19.692Z,32.22103
2023-08-11T22:55:20.612Z,32.25859
2023-08-11T23:00:21.628Z,32.27706
2023-08-11T23:05:22.593Z,32.43485
2023-08-11T23:10:23.552Z,32.45323
2023-08-11T23:15:24.499Z,32.34359
2023-08-11T23:20:25.450Z,32.36825
2023-08-11T23:25:26.542Z,32.42817
2023-08-11T23:30:27.806Z,32.57445
2023-08-11T23:35:29.026Z,32.70127
2023-08-11T23:40:30.319Z,32.73174
2023-08-11T23:45:31.559Z,32.81078
2023-08-11T23:50:32.511Z,32.90139
2023-08-11T23:55:33.469Z,32.96844
